sensor_id;sensor_type;location;lat;lon;timestamp;P1;durP1;ratioP1;P2;durP2;ratioP2
20090;SDS011;10205;49.678;6.560;2023-07-29T00:00:22;0.50;;;0.50;;
20090;SDS011;10205;49.678;6.560;2023-07-29T00:02:49;0.65;;;0.60;;
20090;SDS011;10205;49.678;6.560;2023-07-29T00:05:16;0.65;;;0.65;;
20090;SDS011;10205;49.678;6.560;2023-07-29T00:07:43;0.47;;;0.47;;
20090;SDS011;10205;49.678;6.560;2023-07-29T00:10:11;0.50;;;0.50;;
20090;SDS011;10205;49.678;6.560;2023-07-29T00:12:39;0.40;;;0.40;;
20090;SDS011;10205;49.678;6.560;2023-07-29T00:15:07;0.70;;;0.70;;
20090;SDS011;10205;49.678;6.560;2023-07-29T00:17:35;1.30;;;0.75;;
20090;SDS011;10205;49.678;6.560;2023-07-29T00:20:03;0.85;;;0.65;;
20090;SDS011;10205;49.678;6.560;2023-07-29T00:22:33;0.70;;;0.70;;
20090;SDS011;10205;49.678;6.560;2023-07-29T00:25:00;0.60;;;0.60;;
20090;SDS011;10205;49.678;6.560;2023-07-29T00:27:28;0.50;;;0.50;;
20090;SDS011;10205;49.678;6.560;2023-07-29T00:29:56;0.70;;;0.60;;
20090;SDS011;10205;49.678;6.560;2023-07-29T00:32:24;1.75;;;0.90;;
20090;SDS011;10205;49.678;6.560;2023-07-29T00:34:51;0.70;;;0.70;;
20090;SDS011;10205;49.678;6.560;2023-07-29T00:37:18;0.80;;;0.50;;
20090;SDS011;10205;49.678;6.560;2023-07-29T00:39:46;1.00;;;0.90;;
20090;SDS011;10205;49.678;6.560;2023-07-29T00:42:13;0.63;;;0.50;;
20090;SDS011;10205;49.678;6.560;2023-07-29T00:44:40;1.45;;;0.82;;
20090;SDS011;10205;49.678;6.560;2023-07-29T00:47:09;0.60;;;0.50;;
20090;SDS011;10205;49.678;6.560;2023-07-29T00:49:39;2.35;;;0.75;;
20090;SDS011;10205;49.678;6.560;2023-07-29T00:52:06;0.93;;;0.85;;
20090;SDS011;10205;49.678;6.560;2023-07-29T00:54:36;0.63;;;0.60;;
20090;SDS011;10205;49.678;6.560;2023-07-29T00:57:04;1.02;;;0.77;;
20090;SDS011;10205;49.678;6.560;2023-07-29T00:59:32;0.55;;;0.55;;
20090;SDS011;10205;49.678;6.560;2023-07-29T01:02:01;0.70;;;0.70;;
20090;SDS011;10205;49.678;6.560;2023-07-29T01:04:31;0.60;;;0.57;;
20090;SDS011;10205;49.678;6.560;2023-07-29T01:06:58;0.95;;;0.82;;
20090;SDS011;10205;49.678;6.560;2023-07-29T01:09:41;0.73;;;0.63;;
20090;SDS011;10205;49.678;6.560;2023-07-29T01:12:24;2.00;;;0.70;;
20090;SDS011;10205;49.678;6.560;2023-07-29T01:15:01;1.58;;;0.70;;
20090;SDS011;10205;49.678;6.560;2023-07-29T01:17:40;0.65;;;0.52;;
20090;SDS011;10205;49.678;6.560;2023-07-29T01:20:16;2.38;;;0.75;;
20090;SDS011;10205;49.678;6.560;2023-07-29T01:22:45;0.60;;;0.57;;
20090;SDS011;10205;49.678;6.560;2023-07-29T01:25:15;0.73;;;0.73;;
20090;SDS011;10205;49.678;6.560;2023-07-29T01:27:45;0.98;;;0.77;;
20090;SDS011;10205;49.678;6.560;2023-07-29T01:30:16;1.20;;;0.65;;
20090;SDS011;10205;49.678;6.560;2023-07-29T01:32:45;0.95;;;0.80;;
20090;SDS011;10205;49.678;6.560;2023-07-29T01:35:22;0.60;;;0.60;;
20090;SDS011;10205;49.678;6.560;2023-07-29T01:37:55;0.60;;;0.60;;
20090;SDS011;10205;49.678;6.560;2023-07-29T01:40:30;0.68;;;0.63;;
20090;SDS011;10205;49.678;6.560;2023-07-29T01:42:59;0.82;;;0.75;;
20090;SDS011;10205;49.678;6.560;2023-07-29T01:45:27;1.00;;;0.88;;
20090;SDS011;10205;49.678;6.560;2023-07-29T01:47:56;1.20;;;0.93;;
20090;SDS011;10205;49.678;6.560;2023-07-29T01:50:24;0.68;;;0.63;;
20090;SDS011;10205;49.678;6.560;2023-07-29T01:52:51;0.80;;;0.80;;
20090;SDS011;10205;49.678;6.560;2023-07-29T01:55:18;1.55;;;0.70;;
20090;SDS011;10205;49.678;6.560;2023-07-29T01:57:48;1.85;;;0.70;;
20090;SDS011;10205;49.678;6.560;2023-07-29T02:00:16;1.23;;;0.88;;
20090;SDS011;10205;49.678;6.560;2023-07-29T02:02:45;0.80;;;0.60;;
20090;SDS011;10205;49.678;6.560;2023-07-29T02:05:15;0.80;;;0.70;;
20090;SDS011;10205;49.678;6.560;2023-07-29T02:07:42;3.38;;;1.10;;
20090;SDS011;10205;49.678;6.560;2023-07-29T02:10:11;0.90;;;0.68;;
20090;SDS011;10205;49.678;6.560;2023-07-29T02:12:38;1.20;;;0.70;;
20090;SDS011;10205;49.678;6.560;2023-07-29T02:15:10;0.80;;;0.80;;
20090;SDS011;10205;49.678;6.560;2023-07-29T02:17:38;1.05;;;0.73;;
20090;SDS011;10205;49.678;6.560;2023-07-29T02:20:09;1.40;;;0.80;;
20090;SDS011;10205;49.678;6.560;2023-07-29T02:22:37;2.25;;;0.98;;
20090;SDS011;10205;49.678;6.560;2023-07-29T02:25:04;1.27;;;0.98;;
20090;SDS011;10205;49.678;6.560;2023-07-29T02:27:32;0.70;;;0.70;;
20090;SDS011;10205;49.678;6.560;2023-07-29T02:29:59;0.90;;;0.80;;
20090;SDS011;10205;49.678;6.560;2023-07-29T02:32:28;1.63;;;0.82;;
20090;SDS011;10205;49.678;6.560;2023-07-29T02:34:56;1.63;;;1.00;;
20090;SDS011;10205;49.678;6.560;2023-07-29T02:37:23;0.60;;;0.60;;
20090;SDS011;10205;49.678;6.560;2023-07-29T02:39:50;1.05;;;0.80;;
20090;SDS011;10205;49.678;6.560;2023-07-29T02:42:18;0.98;;;0.80;;
20090;SDS011;10205;49.678;6.560;2023-07-29T02:44:45;0.80;;;0.77;;
20090;SDS011;10205;49.678;6.560;2023-07-29T02:47:12;7.43;;;0.90;;
20090;SDS011;10205;49.678;6.560;2023-07-29T02:49:41;1.65;;;0.80;;
20090;SDS011;10205;49.678;6.560;2023-07-29T02:52:08;1.88;;;1.00;;
20090;SDS011;10205;49.678;6.560;2023-07-29T02:54:35;2.08;;;0.80;;
20090;SDS011;10205;49.678;6.560;2023-07-29T02:57:03;1.25;;;0.80;;
20090;SDS011;10205;49.678;6.560;2023-07-29T02:59:30;2.05;;;0.80;;
20090;SDS011;10205;49.678;6.560;2023-07-29T03:01:57;3.83;;;0.90;;
20090;SDS011;10205;49.678;6.560;2023-07-29T03:04:25;0.88;;;0.70;;
20090;SDS011;10205;49.678;6.560;2023-07-29T03:06:53;0.85;;;0.85;;
20090;SDS011;10205;49.678;6.560;2023-07-29T03:09:20;1.70;;;0.95;;
20090;SDS011;10205;49.678;6.560;2023-07-29T03:11:48;0.63;;;0.60;;
20090;SDS011;10205;49.678;6.560;2023-07-29T03:14:16;0.75;;;0.70;;
20090;SDS011;10205;49.678;6.560;2023-07-29T03:16:43;0.95;;;0.75;;
20090;SDS011;10205;49.678;6.560;2023-07-29T03:19:10;3.00;;;1.02;;
20090;SDS011;10205;49.678;6.560;2023-07-29T03:21:38;1.05;;;0.80;;
20090;SDS011;10205;49.678;6.560;2023-07-29T03:24:07;1.77;;;1.23;;
20090;SDS011;10205;49.678;6.560;2023-07-29T03:26:34;1.00;;;1.00;;
20090;SDS011;10205;49.678;6.560;2023-07-29T03:29:01;1.67;;;0.90;;
20090;SDS011;10205;49.678;6.560;2023-07-29T03:31:29;1.30;;;0.80;;
20090;SDS011;10205;49.678;6.560;2023-07-29T03:33:56;0.82;;;0.82;;
20090;SDS011;10205;49.678;6.560;2023-07-29T03:36:23;0.85;;;0.75;;
20090;SDS011;10205;49.678;6.560;2023-07-29T03:38:50;0.70;;;0.70;;
20090;SDS011;10205;49.678;6.560;2023-07-29T03:41:19;0.85;;;0.85;;
20090;SDS011;10205;49.678;6.560;2023-07-29T03:43:46;0.82;;;0.80;;
20090;SDS011;10205;49.678;6.560;2023-07-29T03:53:35;1.25;;;0.90;;
20090;SDS011;10205;49.678;6.560;2023-07-29T03:56:03;1.10;;;0.90;;
20090;SDS011;10205;49.678;6.560;2023-07-29T03:58:32;1.67;;;0.95;;
20090;SDS011;10205;49.678;6.560;2023-07-29T04:00:59;1.08;;;0.85;;
20090;SDS011;10205;49.678;6.560;2023-07-29T04:03:26;1.13;;;0.90;;
20090;SDS011;10205;49.678;6.560;2023-07-29T04:05:53;1.38;;;0.80;;
20090;SDS011;10205;49.678;6.560;2023-07-29T04:08:21;0.82;;;0.82;;
20090;SDS011;10205;49.678;6.560;2023-07-29T04:10:48;0.95;;;0.85;;
20090;SDS011;10205;49.678;6.560;2023-07-29T04:13:15;1.13;;;0.98;;
20090;SDS011;10205;49.678;6.560;2023-07-29T04:15:44;0.90;;;0.80;;
20090;SDS011;10205;49.678;6.560;2023-07-29T04:18:12;1.20;;;1.10;;
20090;SDS011;10205;49.678;6.560;2023-07-29T04:20:39;4.18;;;1.05;;
20090;SDS011;10205;49.678;6.560;2023-07-29T04:23:06;1.08;;;0.75;;
20090;SDS011;10205;49.678;6.560;2023-07-29T04:25:33;1.95;;;0.70;;
20090;SDS011;10205;49.678;6.560;2023-07-29T04:28:00;1.00;;;0.85;;
20090;SDS011;10205;49.678;6.560;2023-07-29T04:30:30;2.05;;;0.95;;
20090;SDS011;10205;49.678;6.560;2023-07-29T04:32:58;1.85;;;0.80;;
20090;SDS011;10205;49.678;6.560;2023-07-29T04:35:25;1.20;;;0.75;;
20090;SDS011;10205;49.678;6.560;2023-07-29T04:37:53;1.33;;;0.85;;
20090;SDS011;10205;49.678;6.560;2023-07-29T04:40:21;1.02;;;0.77;;
20090;SDS011;10205;49.678;6.560;2023-07-29T04:42:48;0.98;;;0.82;;
20090;SDS011;10205;49.678;6.560;2023-07-29T04:45:17;1.67;;;0.90;;
20090;SDS011;10205;49.678;6.560;2023-07-29T04:47:44;0.90;;;0.70;;
20090;SDS011;10205;49.678;6.560;2023-07-29T04:50:13;1.67;;;0.80;;
20090;SDS011;10205;49.678;6.560;2023-07-29T04:52:40;1.65;;;0.70;;
20090;SDS011;10205;49.678;6.560;2023-07-29T04:55:07;0.82;;;0.70;;
20090;SDS011;10205;49.678;6.560;2023-07-29T04:57:35;0.70;;;0.60;;
20090;SDS011;10205;49.678;6.560;2023-07-29T05:00:02;0.95;;;0.70;;
20090;SDS011;10205;49.678;6.560;2023-07-29T05:02:30;0.60;;;0.60;;
20090;SDS011;10205;49.678;6.560;2023-07-29T05:04:57;1.83;;;0.77;;
20090;SDS011;10205;49.678;6.560;2023-07-29T05:07:26;0.60;;;0.60;;
20090;SDS011;10205;49.678;6.560;2023-07-29T05:09:53;1.00;;;0.73;;
20090;SDS011;10205;49.678;6.560;2023-07-29T05:12:20;1.05;;;0.70;;
20090;SDS011;10205;49.678;6.560;2023-07-29T05:14:48;0.60;;;0.60;;
20090;SDS011;10205;49.678;6.560;2023-07-29T05:17:15;0.70;;;0.50;;
20090;SDS011;10205;49.678;6.560;2023-07-29T05:19:42;0.85;;;0.70;;
20090;SDS011;10205;49.678;6.560;2023-07-29T05:22:09;2.60;;;0.90;;
20090;SDS011;10205;49.678;6.560;2023-07-29T05:24:38;0.82;;;0.50;;
20090;SDS011;10205;49.678;6.560;2023-07-29T05:27:05;1.42;;;0.63;;
20090;SDS011;10205;49.678;6.560;2023-07-29T05:29:33;0.80;;;0.60;;
20090;SDS011;10205;49.678;6.560;2023-07-29T05:32:00;0.90;;;0.60;;
20090;SDS011;10205;49.678;6.560;2023-07-29T05:34:28;0.73;;;0.60;;
20090;SDS011;10205;49.678;6.560;2023-07-29T05:36:55;1.13;;;0.60;;
20090;SDS011;10205;49.678;6.560;2023-07-29T05:39:22;0.50;;;0.40;;
20090;SDS011;10205;49.678;6.560;2023-07-29T05:41:51;1.00;;;0.57;;
20090;SDS011;10205;49.678;6.560;2023-07-29T05:44:18;1.25;;;0.50;;
20090;SDS011;10205;49.678;6.560;2023-07-29T05:46:46;0.80;;;0.70;;
20090;SDS011;10205;49.678;6.560;2023-07-29T05:49:13;0.95;;;0.70;;
20090;SDS011;10205;49.678;6.560;2023-07-29T05:51:41;0.50;;;0.50;;
20090;SDS011;10205;49.678;6.560;2023-07-29T05:54:08;0.70;;;0.50;;
20090;SDS011;10205;49.678;6.560;2023-07-29T05:56:35;1.55;;;0.55;;
20090;SDS011;10205;49.678;6.560;2023-07-29T05:59:04;0.70;;;0.63;;
20090;SDS011;10205;49.678;6.560;2023-07-29T06:01:31;1.60;;;0.47;;
20090;SDS011;10205;49.678;6.560;2023-07-29T06:03:58;1.40;;;0.77;;
20090;SDS011;10205;49.678;6.560;2023-07-29T06:06:26;1.65;;;0.70;;
20090;SDS011;10205;49.678;6.560;2023-07-29T06:08:53;0.90;;;0.47;;
20090;SDS011;10205;49.678;6.560;2023-07-29T06:11:20;1.33;;;0.60;;
20090;SDS011;10205;49.678;6.560;2023-07-29T06:13:47;0.65;;;0.50;;
20090;SDS011;10205;49.678;6.560;2023-07-29T06:16:16;1.05;;;0.75;;
20090;SDS011;10205;49.678;6.560;2023-07-29T06:18:43;1.50;;;0.70;;
20090;SDS011;10205;49.678;6.560;2023-07-29T06:21:10;0.43;;;0.43;;
20090;SDS011;10205;49.678;6.560;2023-07-29T06:23:42;0.45;;;0.45;;
20090;SDS011;10205;49.678;6.560;2023-07-29T06:26:09;2.15;;;0.98;;
20090;SDS011;10205;49.678;6.560;2023-07-29T06:28:36;1.45;;;0.60;;
20090;SDS011;10205;49.678;6.560;2023-07-29T06:31:04;1.35;;;0.90;;
20090;SDS011;10205;49.678;6.560;2023-07-29T06:33:32;0.90;;;0.68;;
20090;SDS011;10205;49.678;6.560;2023-07-29T06:35:59;0.93;;;0.73;;
20090;SDS011;10205;49.678;6.560;2023-07-29T06:38:27;0.70;;;0.50;;
20090;SDS011;10205;49.678;6.560;2023-07-29T06:40:54;0.60;;;0.60;;
20090;SDS011;10205;49.678;6.560;2023-07-29T06:43:21;0.88;;;0.50;;
20090;SDS011;10205;49.678;6.560;2023-07-29T06:45:48;1.42;;;0.70;;
20090;SDS011;10205;49.678;6.560;2023-07-29T06:48:16;1.00;;;0.80;;
20090;SDS011;10205;49.678;6.560;2023-07-29T06:50:46;0.68;;;0.60;;
20090;SDS011;10205;49.678;6.560;2023-07-29T06:53:14;1.08;;;0.80;;
20090;SDS011;10205;49.678;6.560;2023-07-29T06:55:41;0.60;;;0.60;;
20090;SDS011;10205;49.678;6.560;2023-07-29T06:58:09;0.95;;;0.63;;
20090;SDS011;10205;49.678;6.560;2023-07-29T07:00:37;1.77;;;0.65;;
20090;SDS011;10205;49.678;6.560;2023-07-29T07:03:04;1.00;;;0.70;;
20090;SDS011;10205;49.678;6.560;2023-07-29T07:05:31;0.98;;;0.70;;
20090;SDS011;10205;49.678;6.560;2023-07-29T07:08:00;0.88;;;0.68;;
20090;SDS011;10205;49.678;6.560;2023-07-29T07:10:27;0.80;;;0.65;;
20090;SDS011;10205;49.678;6.560;2023-07-29T07:12:54;1.58;;;0.70;;
20090;SDS011;10205;49.678;6.560;2023-07-29T07:15:21;0.63;;;0.63;;
20090;SDS011;10205;49.678;6.560;2023-07-29T07:17:49;0.98;;;0.65;;
20090;SDS011;10205;49.678;6.560;2023-07-29T07:20:17;1.77;;;0.75;;
20090;SDS011;10205;49.678;6.560;2023-07-29T07:22:44;0.90;;;0.50;;
20090;SDS011;10205;49.678;6.560;2023-07-29T07:25:13;2.83;;;0.60;;
20090;SDS011;10205;49.678;6.560;2023-07-29T07:27:40;1.15;;;0.70;;
20090;SDS011;10205;49.678;6.560;2023-07-29T07:30:08;2.55;;;0.80;;
20090;SDS011;10205;49.678;6.560;2023-07-29T07:32:36;1.77;;;1.10;;
20090;SDS011;10205;49.678;6.560;2023-07-29T07:35:03;1.00;;;0.90;;
20090;SDS011;10205;49.678;6.560;2023-07-29T07:37:31;1.48;;;0.80;;
20090;SDS011;10205;49.678;6.560;2023-07-29T07:39:58;1.67;;;1.00;;
20090;SDS011;10205;49.678;6.560;2023-07-29T07:42:27;1.95;;;0.93;;
20090;SDS011;10205;49.678;6.560;2023-07-29T07:44:54;1.05;;;0.80;;
20090;SDS011;10205;49.678;6.560;2023-07-29T07:47:21;2.83;;;0.93;;
20090;SDS011;10205;49.678;6.560;2023-07-29T07:49:49;1.75;;;1.25;;
20090;SDS011;10205;49.678;6.560;2023-07-29T07:52:16;1.48;;;1.10;;
20090;SDS011;10205;49.678;6.560;2023-07-29T07:54:43;1.02;;;0.90;;
20090;SDS011;10205;49.678;6.560;2023-07-29T07:57:10;1.33;;;1.00;;
20090;SDS011;10205;49.678;6.560;2023-07-29T07:59:39;1.35;;;0.90;;
20090;SDS011;10205;49.678;6.560;2023-07-29T08:02:06;0.98;;;0.90;;
20090;SDS011;10205;49.678;6.560;2023-07-29T08:04:33;0.80;;;0.70;;
20090;SDS011;10205;49.678;6.560;2023-07-29T08:07:01;1.02;;;0.65;;
20090;SDS011;10205;49.678;6.560;2023-07-29T08:09:28;5.57;;;0.90;;
20090;SDS011;10205;49.678;6.560;2023-07-29T08:11:55;1.05;;;0.88;;
20090;SDS011;10205;49.678;6.560;2023-07-29T08:14:22;0.85;;;0.60;;
20090;SDS011;10205;49.678;6.560;2023-07-29T08:16:51;1.65;;;0.90;;
20090;SDS011;10205;49.678;6.560;2023-07-29T08:19:18;0.85;;;0.50;;
20090;SDS011;10205;49.678;6.560;2023-07-29T08:21:45;0.90;;;0.75;;
20090;SDS011;10205;49.678;6.560;2023-07-29T08:24:13;1.10;;;0.80;;
20090;SDS011;10205;49.678;6.560;2023-07-29T08:26:40;1.50;;;1.00;;
20090;SDS011;10205;49.678;6.560;2023-07-29T08:29:07;0.90;;;0.80;;
20090;SDS011;10205;49.678;6.560;2023-07-29T08:31:34;0.90;;;0.80;;
20090;SDS011;10205;49.678;6.560;2023-07-29T08:34:03;1.33;;;0.90;;
20090;SDS011;10205;49.678;6.560;2023-07-29T08:36:31;1.38;;;0.93;;
20090;SDS011;10205;49.678;6.560;2023-07-29T08:38:59;1.38;;;0.95;;
20090;SDS011;10205;49.678;6.560;2023-07-29T08:41:28;2.72;;;1.00;;
20090;SDS011;10205;49.678;6.560;2023-07-29T08:44:06;1.77;;;0.98;;
20090;SDS011;10205;49.678;6.560;2023-07-29T08:46:38;1.13;;;0.90;;
20090;SDS011;10205;49.678;6.560;2023-07-29T08:49:07;1.85;;;0.90;;
20090;SDS011;10205;49.678;6.560;2023-07-29T08:51:35;3.75;;;1.10;;
20090;SDS011;10205;49.678;6.560;2023-07-29T08:54:03;0.88;;;0.88;;
20090;SDS011;10205;49.678;6.560;2023-07-29T08:56:31;1.58;;;0.98;;
20090;SDS011;10205;49.678;6.560;2023-07-29T08:58:58;2.13;;;1.08;;
20090;SDS011;10205;49.678;6.560;2023-07-29T09:01:27;1.10;;;1.00;;
20090;SDS011;10205;49.678;6.560;2023-07-29T09:03:55;1.40;;;0.90;;
20090;SDS011;10205;49.678;6.560;2023-07-29T09:06:24;0.90;;;0.90;;
20090;SDS011;10205;49.678;6.560;2023-07-29T09:08:52;1.48;;;1.00;;
20090;SDS011;10205;49.678;6.560;2023-07-29T09:11:21;0.98;;;0.98;;
20090;SDS011;10205;49.678;6.560;2023-07-29T09:13:49;1.13;;;0.85;;
20090;SDS011;10205;49.678;6.560;2023-07-29T09:16:18;1.20;;;0.98;;
20090;SDS011;10205;49.678;6.560;2023-07-29T09:18:47;1.13;;;1.02;;
20090;SDS011;10205;49.678;6.560;2023-07-29T09:21:15;0.80;;;0.80;;
20090;SDS011;10205;49.678;6.560;2023-07-29T09:23:45;1.15;;;1.00;;
20090;SDS011;10205;49.678;6.560;2023-07-29T09:26:12;1.35;;;0.90;;
20090;SDS011;10205;49.678;6.560;2023-07-29T09:28:40;1.10;;;1.00;;
20090;SDS011;10205;49.678;6.560;2023-07-29T09:31:07;1.20;;;0.80;;
20090;SDS011;10205;49.678;6.560;2023-07-29T09:33:46;1.10;;;1.00;;
20090;SDS011;10205;49.678;6.560;2023-07-29T09:36:14;1.00;;;0.77;;
20090;SDS011;10205;49.678;6.560;2023-07-29T09:38:41;1.10;;;1.00;;
20090;SDS011;10205;49.678;6.560;2023-07-29T09:41:11;1.33;;;1.00;;
20090;SDS011;10205;49.678;6.560;2023-07-29T09:43:41;1.08;;;0.88;;
20090;SDS011;10205;49.678;6.560;2023-07-29T09:46:08;0.80;;;0.80;;
20090;SDS011;10205;49.678;6.560;2023-07-29T09:48:36;1.00;;;0.90;;
20090;SDS011;10205;49.678;6.560;2023-07-29T09:51:10;1.10;;;1.00;;
20090;SDS011;10205;49.678;6.560;2023-07-29T09:53:41;1.70;;;0.90;;
20090;SDS011;10205;49.678;6.560;2023-07-29T09:56:11;1.17;;;0.93;;
20090;SDS011;10205;49.678;6.560;2023-07-29T09:58:39;1.17;;;0.95;;
20090;SDS011;10205;49.678;6.560;2023-07-29T10:01:10;1.23;;;0.90;;
20090;SDS011;10205;49.678;6.560;2023-07-29T10:03:38;1.25;;;1.13;;
20090;SDS011;10205;49.678;6.560;2023-07-29T10:06:06;0.95;;;0.88;;
20090;SDS011;10205;49.678;6.560;2023-07-29T10:08:34;1.17;;;1.08;;
20090;SDS011;10205;49.678;6.560;2023-07-29T10:11:05;1.65;;;1.10;;
20090;SDS011;10205;49.678;6.560;2023-07-29T10:13:34;1.40;;;1.02;;
20090;SDS011;10205;49.678;6.560;2023-07-29T10:16:03;1.20;;;1.00;;
20090;SDS011;10205;49.678;6.560;2023-07-29T10:18:31;1.02;;;0.90;;
20090;SDS011;10205;49.678;6.560;2023-07-29T10:21:00;1.20;;;1.10;;
20090;SDS011;10205;49.678;6.560;2023-07-29T10:23:31;1.20;;;1.10;;
20090;SDS011;10205;49.678;6.560;2023-07-29T10:26:09;1.52;;;1.10;;
20090;SDS011;10205;49.678;6.560;2023-07-29T10:28:39;0.80;;;0.80;;
20090;SDS011;10205;49.678;6.560;2023-07-29T10:31:13;1.30;;;1.10;;
20090;SDS011;10205;49.678;6.560;2023-07-29T10:33:42;1.00;;;0.98;;
20090;SDS011;10205;49.678;6.560;2023-07-29T10:36:11;1.20;;;1.10;;
20090;SDS011;10205;49.678;6.560;2023-07-29T10:38:40;3.55;;;1.10;;
20090;SDS011;10205;49.678;6.560;2023-07-29T10:41:09;11.68;;;1.42;;
20090;SDS011;10205;49.678;6.560;2023-07-29T10:43:36;2.17;;;1.10;;
20090;SDS011;10205;49.678;6.560;2023-07-29T10:46:17;1.42;;;1.00;;
20090;SDS011;10205;49.678;6.560;2023-07-29T10:48:51;1.25;;;1.10;;
20090;SDS011;10205;49.678;6.560;2023-07-29T10:51:24;1.30;;;1.20;;
20090;SDS011;10205;49.678;6.560;2023-07-29T10:53:55;1.48;;;1.17;;
20090;SDS011;10205;49.678;6.560;2023-07-29T10:56:26;1.77;;;1.10;;
20090;SDS011;10205;49.678;6.560;2023-07-29T10:58:56;1.42;;;1.33;;
20090;SDS011;10205;49.678;6.560;2023-07-29T11:01:28;1.40;;;1.20;;
20090;SDS011;10205;49.678;6.560;2023-07-29T11:07:01;0.80;;;0.80;;
20090;SDS011;10205;49.678;6.560;2023-07-29T11:09:52;1.17;;;1.08;;
20090;SDS011;10205;49.678;6.560;2023-07-29T11:12:40;1.60;;;1.05;;
20090;SDS011;10205;49.678;6.560;2023-07-29T11:15:17;1.35;;;1.08;;
20090;SDS011;10205;49.678;6.560;2023-07-29T11:17:49;1.20;;;1.10;;
20090;SDS011;10205;49.678;6.560;2023-07-29T11:20:19;0.93;;;0.93;;
20090;SDS011;10205;49.678;6.560;2023-07-29T11:22:50;1.38;;;1.27;;
20090;SDS011;10205;49.678;6.560;2023-07-29T11:25:18;1.48;;;0.95;;
20090;SDS011;10205;49.678;6.560;2023-07-29T11:27:48;1.05;;;0.98;;
20090;SDS011;10205;49.678;6.560;2023-07-29T11:30:18;1.05;;;0.98;;
20090;SDS011;10205;49.678;6.560;2023-07-29T11:32:46;1.10;;;1.00;;
20090;SDS011;10205;49.678;6.560;2023-07-29T11:35:14;1.10;;;1.00;;
20090;SDS011;10205;49.678;6.560;2023-07-29T11:37:44;1.75;;;0.85;;
20090;SDS011;10205;49.678;6.560;2023-07-29T11:40:14;1.20;;;1.05;;
20090;SDS011;10205;49.678;6.560;2023-07-29T11:42:43;1.45;;;1.13;;
20090;SDS011;10205;49.678;6.560;2023-07-29T11:45:12;1.50;;;1.00;;
20090;SDS011;10205;49.678;6.560;2023-07-29T11:47:40;1.10;;;1.00;;
20090;SDS011;10205;49.678;6.560;2023-07-29T11:50:11;1.38;;;1.05;;
20090;SDS011;10205;49.678;6.560;2023-07-29T11:52:40;1.10;;;1.00;;
20090;SDS011;10205;49.678;6.560;2023-07-29T11:55:14;2.72;;;1.10;;
20090;SDS011;10205;49.678;6.560;2023-07-29T11:57:45;1.20;;;1.10;;
20090;SDS011;10205;49.678;6.560;2023-07-29T12:00:20;1.20;;;1.10;;
20090;SDS011;10205;49.678;6.560;2023-07-29T12:02:51;1.48;;;1.00;;
20090;SDS011;10205;49.678;6.560;2023-07-29T12:05:21;1.40;;;1.20;;
20090;SDS011;10205;49.678;6.560;2023-07-29T12:07:52;1.15;;;1.02;;
20090;SDS011;10205;49.678;6.560;2023-07-29T12:10:20;1.35;;;1.15;;
20090;SDS011;10205;49.678;6.560;2023-07-29T12:12:48;1.20;;;0.90;;
20090;SDS011;10205;49.678;6.560;2023-07-29T12:15:26;1.30;;;1.20;;
20090;SDS011;10205;49.678;6.560;2023-07-29T12:17:56;1.20;;;1.10;;
20090;SDS011;10205;49.678;6.560;2023-07-29T12:20:26;0.98;;;0.90;;
20090;SDS011;10205;49.678;6.560;2023-07-29T12:22:57;0.90;;;0.90;;
20090;SDS011;10205;49.678;6.560;2023-07-29T12:25:26;1.33;;;1.23;;
20090;SDS011;10205;49.678;6.560;2023-07-29T12:27:54;1.90;;;1.23;;
20090;SDS011;10205;49.678;6.560;2023-07-29T12:30:21;1.15;;;1.05;;
20090;SDS011;10205;49.678;6.560;2023-07-29T12:32:51;0.80;;;0.80;;
20090;SDS011;10205;49.678;6.560;2023-07-29T12:35:18;1.10;;;1.00;;
20090;SDS011;10205;49.678;6.560;2023-07-29T12:37:45;1.33;;;0.93;;
20090;SDS011;10205;49.678;6.560;2023-07-29T12:40:22;0.90;;;0.82;;
20090;SDS011;10205;49.678;6.560;2023-07-29T12:42:50;1.42;;;1.33;;
20090;SDS011;10205;49.678;6.560;2023-07-29T12:45:19;1.30;;;1.20;;
20090;SDS011;10205;49.678;6.560;2023-07-29T12:47:52;1.25;;;1.10;;
20090;SDS011;10205;49.678;6.560;2023-07-29T12:50:20;1.45;;;1.10;;
20090;SDS011;10205;49.678;6.560;2023-07-29T12:52:47;1.20;;;1.10;;
20090;SDS011;10205;49.678;6.560;2023-07-29T12:55:14;1.23;;;1.10;;
20090;SDS011;10205;49.678;6.560;2023-07-29T12:57:42;1.50;;;1.20;;
20090;SDS011;10205;49.678;6.560;2023-07-29T13:00:10;1.25;;;1.15;;
20090;SDS011;10205;49.678;6.560;2023-07-29T13:02:38;1.00;;;1.00;;
20090;SDS011;10205;49.678;6.560;2023-07-29T13:05:08;2.17;;;1.30;;
20090;SDS011;10205;49.678;6.560;2023-07-29T13:07:37;1.77;;;1.40;;
20090;SDS011;10205;49.678;6.560;2023-07-29T13:10:05;1.08;;;1.08;;
20090;SDS011;10205;49.678;6.560;2023-07-29T13:12:34;1.15;;;1.05;;
20090;SDS011;10205;49.678;6.560;2023-07-29T13:15:01;1.38;;;1.27;;
20090;SDS011;10205;49.678;6.560;2023-07-29T13:17:29;3.25;;;1.55;;
20090;SDS011;10205;49.678;6.560;2023-07-29T13:19:56;1.55;;;1.20;;
20090;SDS011;10205;49.678;6.560;2023-07-29T13:22:25;1.08;;;0.98;;
20090;SDS011;10205;49.678;6.560;2023-07-29T13:24:53;1.20;;;1.10;;
20090;SDS011;10205;49.678;6.560;2023-07-29T13:27:20;1.20;;;1.10;;
20090;SDS011;10205;49.678;6.560;2023-07-29T13:29:47;1.27;;;1.17;;
20090;SDS011;10205;49.678;6.560;2023-07-29T13:32:14;1.63;;;1.20;;
20090;SDS011;10205;49.678;6.560;2023-07-29T13:34:42;1.23;;;1.13;;
20090;SDS011;10205;49.678;6.560;2023-07-29T13:37:09;1.30;;;1.20;;
20090;SDS011;10205;49.678;6.560;2023-07-29T13:39:38;1.23;;;1.13;;
20090;SDS011;10205;49.678;6.560;2023-07-29T13:42:05;1.30;;;1.20;;
20090;SDS011;10205;49.678;6.560;2023-07-29T13:44:33;1.27;;;0.90;;
20090;SDS011;10205;49.678;6.560;2023-07-29T13:47:00;1.30;;;1.20;;
20090;SDS011;10205;49.678;6.560;2023-07-29T13:49:27;1.17;;;1.08;;
20090;SDS011;10205;49.678;6.560;2023-07-29T13:51:54;1.10;;;1.00;;
20090;SDS011;10205;49.678;6.560;2023-07-29T13:54:22;2.13;;;1.20;;
20090;SDS011;10205;49.678;6.560;2023-07-29T13:56:50;1.15;;;1.05;;
20090;SDS011;10205;49.678;6.560;2023-07-29T13:59:19;0.90;;;0.90;;
20090;SDS011;10205;49.678;6.560;2023-07-29T14:01:46;1.20;;;1.10;;
20090;SDS011;10205;49.678;6.560;2023-07-29T14:04:13;1.27;;;1.10;;
20090;SDS011;10205;49.678;6.560;2023-07-29T14:06:40;1.20;;;1.10;;
20090;SDS011;10205;49.678;6.560;2023-07-29T14:09:08;1.10;;;1.00;;
20090;SDS011;10205;49.678;6.560;2023-07-29T14:11:35;1.20;;;1.10;;
20090;SDS011;10205;49.678;6.560;2023-07-29T14:14:04;1.20;;;1.10;;
20090;SDS011;10205;49.678;6.560;2023-07-29T14:16:31;1.10;;;1.10;;
20090;SDS011;10205;49.678;6.560;2023-07-29T14:18:58;1.00;;;1.00;;
20090;SDS011;10205;49.678;6.560;2023-07-29T14:21:25;1.35;;;1.25;;
20090;SDS011;10205;49.678;6.560;2023-07-29T14:23:52;1.27;;;1.17;;
20090;SDS011;10205;49.678;6.560;2023-07-29T14:26:20;1.00;;;0.95;;
20090;SDS011;10205;49.678;6.560;2023-07-29T14:28:47;1.45;;;1.35;;
20090;SDS011;10205;49.678;6.560;2023-07-29T14:31:16;1.33;;;1.10;;
20090;SDS011;10205;49.678;6.560;2023-07-29T14:33:44;1.20;;;1.10;;
20090;SDS011;10205;49.678;6.560;2023-07-29T14:36:11;1.10;;;1.00;;
20090;SDS011;10205;49.678;6.560;2023-07-29T14:38:38;1.15;;;1.05;;
20090;SDS011;10205;49.678;6.560;2023-07-29T14:41:05;1.15;;;1.05;;
20090;SDS011;10205;49.678;6.560;2023-07-29T14:43:33;2.78;;;1.10;;
20090;SDS011;10205;49.678;6.560;2023-07-29T14:46:00;1.38;;;1.27;;
20090;SDS011;10205;49.678;6.560;2023-07-29T14:48:30;1.20;;;1.10;;
20090;SDS011;10205;49.678;6.560;2023-07-29T14:50:57;0.95;;;0.95;;
20090;SDS011;10205;49.678;6.560;2023-07-29T14:53:24;1.38;;;1.25;;
20090;SDS011;10205;49.678;6.560;2023-07-29T14:55:51;1.10;;;1.10;;
20090;SDS011;10205;49.678;6.560;2023-07-29T14:58:19;1.35;;;1.10;;
20090;SDS011;10205;49.678;6.560;2023-07-29T15:00:46;1.20;;;1.00;;
20090;SDS011;10205;49.678;6.560;2023-07-29T15:03:13;1.20;;;1.10;;
20090;SDS011;10205;49.678;6.560;2023-07-29T15:05:45;1.42;;;1.25;;